Huvudsida
METAR-TAF:

METAR-TAF

Flygplatser :

Nouakchotts flygplats

Nouakchott, Mauretanien

latitud: 18-18-36N, longitud: 015-58-11W, höjd: 3 m

Aktuellt väderrapport

Denna rapport gjordes för 22 minuter sedan, klockan 01:30 UTC
Vind 15 kt från nordväst
Temperatur 24°C
Fuktighet 83%
Tryck 1009 hPa
Sikt: 8000 m

METAR: GQNO 190130Z 32015KT 8000 NSC 24/21 Q1009 NOSIG

Tid: 01:52 (01:52 UTC)

Väderprognos

Denna rapport gjordes för 2 timmar och 52 minuter sedan, klockan 23:00 UTC
Prognos gäller från 19 kl. 00 UTC till 20 kl. 06 UTC
Vind 13 kt från nordväst
Sikt: 8000 m
Sannolikhet 40% :
Temporärt
från 19 kl. 08 UTC till 19 kl. 11 UTC
Vind 3 kt från nordväst

TAF: GQNO 182300Z 1900/2006 32013KT 8000 NSC PROB40 TEMPO 1908/1911 32003KT

Aktuella väderrapporter och prognoser från 4000 flygplatser (METAR- och TAF-rapporter).

De tillgängliga stationerna syns som gula och röda prickar på kartan.

För musen över prickarna för att se namnen på stationerna.

Klicka sedan för att få väderrapporter och prognoser.

För att ändra kartan: Klicka på de gröna knapparna med ett svart kors på för att zooma in; den gröna knappen med ett streck på för att zooma ut; eller på de gröna pilarna för angränsande kartor.


METAR-TAF: